• Join FlightAware (Why Join?)
  • Login
  • US Flag 
04:24AM EDT


 

Airport Tracker/Info


-or-


 

Live Flight TrackerFlight Track Log ✈ AWE2690 ✈ 04-Nov-2013 ✈ KMYR - KCLT

Flight Track Log - Related Links

Times and Time Zones

All times are in EST time to prevent confusion due to time zone crossing. See the AWE2690 flight status page for this flight to view local times or setup timezone preferences in your user account.

Time Position Orientation Groundspeed Altitude Reporting Facility
EST Latitude Longitude Course Direction KTS MPH feet Rate Location/Type
11:27AM 33.7814 -79.0247 312° West 260 299 6,200  Level Jacksonville Center
11:28AM 33.8690 -79.1713 313° West  Level Estimated
11:28AM 33.8272 -79.0925 309° West 291 335 9,600  Level Jacksonville Center
11:29AM 33.9156 -79.2329 312° West  Level FlightAware Approximate
11:29AM 33.8794 -79.1653 311° West 291 335 10,800  Level Jacksonville Center
11:30AM 33.9622 -79.2946 312° West  Level FlightAware Approximate
11:30AM 33.9381 -79.2431 312° West 301 346 14,300  Level Jacksonville Center
11:31AM 34.0094 -79.3556 312° West  Level Estimated
11:31AM 33.9925 -79.3233 309° West 301 346 16,000  Level Jacksonville Center
11:32AM 34.0511 -79.4036 311° West 306 352 16,000  Level Jacksonville Center
11:33AM 34.1161 -79.4889 313° West 312 359 16,000  Level Jacksonville Center
11:34AM 34.1681 -79.5622 311° West 313 360 16,000  Level Jacksonville Center
11:35AM 34.2267 -79.6503 309° West 313 360 16,000  Level Jacksonville Center
11:36AM 34.2744 -79.7214 309° West 313 360 16,000 -180 Level Jacksonville Center
11:37AM 34.3369 -79.8072 311° West 319 367 15,700 -660 Descending Jacksonville Center
11:38AM 34.3911 -79.8858 310° West 319 367 14,700 -1,020 Descending Jacksonville Center
11:39AM 34.4450 -79.9694 308° West 319 367 13,700 -1,020 Descending Jacksonville Center
11:40AM 34.4992 -80.0483 310° West 313 360 12,700 -1,020 Descending Jacksonville Center
11:41AM 34.5508 -80.1272 309° West 313 360 11,700 -660 Descending Jacksonville Center
11:42AM 34.6333 -80.2519 309° West 293 337 11,100 -240 Descending Atlanta Center
11:43AM 34.6878 -80.3253 312° West 284 327 11,100 -300 Level Atlanta Center
11:44AM 34.7442 -80.3961 314° West 295 339 10,500 -960 Descending Atlanta Center
11:45AM 34.7681 -80.4989 286° West 283 326 9,100 -1,140 Descending Atlanta Center
11:46AM 34.7686 -80.5950 270° West 288 331 8,100 -1,260 Descending Atlanta Center
11:47AM 34.7714 -80.6933 272° West 285 328 6,600 -1,500 Descending Atlanta Center
11:48AM 34.7589 -80.7772 260° West 277 319 5,200 -1,320 Descending Atlanta Center
11:49AM 34.7447 -80.8664 259° West 262 302 4,100 -600 Descending Atlanta Center
11:50AM 34.7878 -80.9178 316° Northwest 191 220 4,100  Level Atlanta Center
11:52AM 34.8890 -80.8636 24° Northeast  Level FlightAware Approximate
11:52AM 34.8839 -80.9269 24° Northeast 173 199 4,100  Level Atlanta Center
11:53AM 34.9342 -80.9300 357° North 176 203 3,900 -60 Descending Atlanta Center
11:54AM 34.9758 -80.9361 353° North 175 201 4,000  Climbing Atlanta Center
11:55AM 35.0261 -80.9394 357° North 177 204 4,000 -420 Level Atlanta Center
11:56AM 35.0783 -80.9425 357° North 177 204 3,200 -900 Descending Atlanta Center
11:57AM 35.1264 -80.9458 357° North 174 200 2,200 -840 Descending Atlanta Center
11:58AM 35.1619 -80.9519 352° North 131 151 1,500 -720 Descending Atlanta Center